Time;durP1;ratioP1;P1;durP2;ratioP2;P2;SDS_P1;SDS_P2;PMS_P1;PMS_P2;Temp;Humidity;BMP_temperature;BMP_pressure;BME280_temperature;BME280_humidity;BME280_pressure;Samples;Min_cycle;Max_cycle;Signal;HPM_P1;HPM_P2
2021/01/08 00:00:37;;;;;;;26.40;15.93;;;;;;;1.72;100.00;100106.25;5202177;28;20068;-77
2021/01/08 00:03:08;;;;;;;25.60;16.15;;;;;;;1.77;100.00;100113.97;5203987;28;20033;-82
2021/01/08 00:05:38;;;;;;;28.17;15.70;;;;;;;1.78;100.00;100108.78;5203710;28;20041;-81
2021/01/08 00:08:08;;;;;;;27.55;16.38;;;;;;;1.70;100.00;100108.00;5202680;28;20049;-85
2021/01/08 00:10:38;;;;;;;27.10;15.93;;;;;;;1.73;100.00;100107.97;5203797;28;20033;-85
2021/01/08 00:13:09;;;;;;;26.05;15.60;;;;;;;1.82;100.00;100107.91;5204005;28;20472;-82
2021/01/08 00:15:39;;;;;;;25.77;16.27;;;;;;;1.84;100.00;100106.19;5203611;28;20021;-81
2021/01/08 00:18:09;;;;;;;25.02;15.50;;;;;;;1.84;100.00;100106.19;5203540;28;20036;-81
2021/01/08 00:20:39;;;;;;;29.58;17.23;;;;;;;1.84;100.00;100106.19;5203702;28;20028;-81
2021/01/08 00:23:10;;;;;;;28.95;17.40;;;;;;;1.84;100.00;100109.59;5203472;28;20025;-81
2021/01/08 00:25:40;;;;;;;27.33;16.13;;;;;;;1.85;100.00;100105.31;5203417;28;20044;-78
2021/01/08 00:28:10;;;;;;;33.08;18.40;;;;;;;1.78;100.00;100101.91;5203590;28;20017;-77
2021/01/08 00:30:41;;;;;;;28.67;17.70;;;;;;;1.85;100.00;100101.00;5202930;28;20057;-78
2021/01/08 00:33:11;;;;;;;31.08;18.20;;;;;;;1.84;100.00;100098.44;5203150;28;20036;-78
2021/01/08 00:35:41;;;;;;;30.52;17.30;;;;;;;1.88;100.00;100098.41;5202905;28;20299;-82
2021/01/08 00:38:12;;;;;;;31.65;18.15;;;;;;;1.88;100.00;100089.81;5202176;28;20472;-79
2021/01/08 00:40:42;;;;;;;30.08;17.52;;;;;;;1.94;100.00;100100.06;5202911;28;20626;-80
2021/01/08 00:43:12;;;;;;;30.75;18.30;;;;;;;1.92;100.00;100097.50;5203033;28;20060;-81
2021/01/08 00:45:42;;;;;;;30.20;17.40;;;;;;;2.07;100.00;100091.34;5203191;28;20581;-77
2021/01/08 00:48:13;;;;;;;27.67;16.45;;;;;;;2.17;100.00;100090.41;5202934;28;20104;-78
2021/01/08 00:50:43;;;;;;;26.92;16.42;;;;;;;2.25;100.00;100091.16;5203014;28;20036;-77
2021/01/08 00:53:13;;;;;;;28.40;16.65;;;;;;;2.15;100.00;100093.00;5202611;28;20060;-80
2021/01/08 00:55:43;;;;;;;28.40;17.58;;;;;;;2.04;100.00;100089.69;5203060;28;20128;-78
2021/01/08 00:58:13;;;;;;;29.08;17.38;;;;;;;2.01;100.00;100086.28;5203240;28;20034;-78
2021/01/08 01:00:44;;;;;;;28.77;16.67;;;;;;;1.89;100.00;100094.09;5202737;28;20472;-77
2021/01/08 01:03:14;;;;;;;29.00;17.33;;;;;;;2.04;100.00;100088.81;5202949;28;20025;-78
2021/01/08 01:05:44;;;;;;;29.58;17.10;;;;;;;1.92;100.00;100088.91;5202552;28;20032;-82
2021/01/08 01:08:14;;;;;;;28.08;17.17;;;;;;;1.96;100.00;100085.47;5202654;28;20106;-83
2021/01/08 01:10:46;;;;;;;28.42;16.85;;;;;;;2.00;100.00;100092.28;5202627;28;20029;-85
2021/01/08 01:13:16;;;;;;;29.83;18.13;;;;;;;2.02;100.00;100093.13;5202580;28;20064;-83
2021/01/08 01:15:47;;;;;;;31.27;18.27;;;;;;;1.99;100.00;100088.00;5202361;28;20033;-81
2021/01/08 01:18:18;;;;;;;29.42;17.73;;;;;;;2.04;100.00;100094.84;5202153;28;20032;-80
2021/01/08 01:20:49;;;;;;;27.60;16.92;;;;;;;1.99;100.00;100094.00;5202431;28;20056;-81
2021/01/08 01:23:19;;;;;;;29.23;17.33;;;;;;;2.10;100.00;100096.47;5201263;28;20037;-83
2021/01/08 01:25:49;;;;;;;28.98;16.60;;;;;;;2.02;100.00;100090.56;5202160;28;20128;-81
2021/01/08 01:28:19;;;;;;;29.58;17.85;;;;;;;1.97;100.00;100093.16;5202136;28;20056;-80
2021/01/08 01:30:50;;;;;;;30.27;18.05;;;;;;;1.98;100.00;100097.44;5201877;28;20037;-80
2021/01/08 01:33:20;;;;;;;28.05;17.42;;;;;;;1.95;100.00;100112.06;5202129;28;20091;-79
2021/01/08 01:35:52;;;;;;;31.90;18.60;;;;;;;1.89;100.00;100100.13;5201882;28;20037;-82
2021/01/08 01:38:23;;;;;;;28.73;17.73;;;;;;;1.92;100.00;100109.53;5201140;28;20021;-80
2021/01/08 01:40:53;;;;;;;26.98;16.92;;;;;;;2.01;100.00;100107.72;5201446;28;20373;-82
2021/01/08 01:43:24;;;;;;;29.55;17.90;;;;;;;2.01;100.00;100106.88;5202210;28;20021;-82
2021/01/08 01:45:54;;;;;;;28.67;17.60;;;;;;;1.88;100.00;100105.28;5201772;28;20630;-79
2021/01/08 01:48:25;;;;;;;30.38;18.48;;;;;;;1.88;100.00;100110.41;5201920;28;20522;-79
2021/01/08 01:50:55;;;;;;;30.17;18.08;;;;;;;1.87;100.00;100112.16;5201569;28;20029;-79
2021/01/08 01:53:26;;;;;;;29.42;18.35;;;;;;;1.86;100.00;100101.84;5201971;28;20060;-79
2021/01/08 01:55:56;;;;;;;31.23;18.35;;;;;;;1.93;100.00;100104.38;5202039;28;20528;-81
2021/01/08 01:58:26;;;;;;;31.80;18.13;;;;;;;1.91;100.00;100111.25;5201783;28;20117;-80
2021/01/08 02:00:56;;;;;;;28.88;16.90;;;;;;;2.01;100.00;100101.72;5202164;28;20029;-83
2021/01/08 02:03:39;;;;;;;29.48;17.85;;;;;;;1.95;100.00;100102.63;5201921;28;20037;-81
2021/01/08 02:06:14;;;;;;;30.30;18.55;;;;;;;1.90;100.00;100100.97;5201782;28;20025;-79
2021/01/08 02:08:53;;;;;;;27.85;17.50;;;;;;;2.02;100.00;100103.44;5201788;28;20033;-78
2021/01/08 02:11:27;;;;;;;30.27;17.25;;;;;;;2.03;100.00;100107.72;5201854;28;20033;-79
2021/01/08 02:14:09;;;;;;;20.27;13.13;;;;;;;2.02;100.00;100109.44;5200903;28;20025;-77
2021/01/08 02:16:41;;;;;;;28.88;17.90;;;;;;;2.08;100.00;100098.22;5202176;28;20052;-80
2021/01/08 02:19:21;;;;;;;29.10;17.55;;;;;;;2.18;100.00;100110.16;5202088;28;20052;-79
2021/01/08 02:21:57;;;;;;;28.25;17.90;;;;;;;2.13;100.00;100112.78;5216772;28;20204;-80
2021/01/08 02:24:33;;;;;;;28.50;17.55;;;;;;;2.07;100.00;100112.84;5201705;28;20029;-78
2021/01/08 02:27:03;;;;;;;26.75;16.95;;;;;;;2.16;100.00;100114.47;5200239;28;20021;-81
2021/01/08 02:29:35;;;;;;;25.92;16.48;;;;;;;2.24;100.00;100116.13;5201773;28;20041;-81
2021/01/08 02:32:06;;;;;;;24.17;15.95;;;;;;;2.15;100.00;100110.19;5203880;28;20624;-78
2021/01/08 02:34:38;;;;;;;25.80;16.17;;;;;;;2.32;100.00;100114.28;5205959;28;20033;-78
2021/01/08 02:37:08;;;;;;;23.13;15.27;;;;;;;2.36;100.00;100115.13;5205919;28;20545;-79
2021/01/08 02:39:42;;;;;;;23.85;15.50;;;;;;;2.41;100.00;100105.63;5205612;28;20025;-78
2021/01/08 02:42:15;;;;;;;24.80;15.00;;;;;;;2.35;100.00;100111.69;5205972;28;20506;-81
2021/01/08 02:44:45;;;;;;;25.45;15.52;;;;;;;2.31;100.00;100111.75;5205724;28;20033;-81
2021/01/08 02:47:19;;;;;;;25.38;15.48;;;;;;;2.37;100.00;100114.25;5205655;28;20029;-80
2021/01/08 02:49:49;;;;;;;23.20;15.15;;;;;;;2.46;100.00;100116.72;5205441;28;20048;-79
2021/01/08 02:52:20;;;;;;;25.70;15.65;;;;;;;2.39;100.00;100115.09;5203224;28;20026;-81
2021/01/08 02:54:50;;;;;;;24.50;15.73;;;;;;;2.50;100.00;100118.44;5193492;28;20028;-79
2021/01/08 02:57:21;;;;;;;25.00;16.25;;;;;;;2.27;100.00;100120.34;5184686;28;20045;-80
2021/01/08 02:59:56;;;;;;;25.70;16.13;;;;;;;2.08;100.00;100117.13;5184846;28;20052;-80
2021/01/08 03:02:27;;;;;;;27.80;16.77;;;;;;;2.15;100.00;100115.34;5190806;28;20093;-79
2021/01/08 03:04:57;;;;;;;26.65;16.40;;;;;;;2.34;100.00;100116.88;5205371;28;20064;-82
2021/01/08 03:07:28;;;;;;;27.00;16.23;;;;;;;2.18;100.00;100126.47;5205148;28;20507;-80
2021/01/08 03:09:59;;;;;;;23.90;15.68;;;;;;;2.21;100.00;100112.69;5204982;28;20044;-80
2021/01/08 03:12:31;;;;;;;25.63;15.88;;;;;;;2.18;100.00;100118.72;5202564;28;20029;-80
2021/01/08 03:15:06;;;;;;;24.33;15.35;;;;;;;2.28;100.00;100120.34;5204823;28;20034;-78
2021/01/08 03:17:37;;;;;;;24.90;15.18;;;;;;;2.20;100.00;100111.00;5204618;28;20392;-83
2021/01/08 03:20:07;;;;;;;24.30;15.65;;;;;;;2.13;100.00;100123.06;5194109;28;20029;-82
2021/01/08 03:22:38;;;;;;;27.35;15.80;;;;;;;2.10;100.00;100112.81;5207076;28;20443;-82
2021/01/08 03:25:09;;;;;;;24.77;15.73;;;;;;;2.07;100.00;100111.97;5202645;28;20029;-79
2021/01/08 03:27:39;;;;;;;25.58;15.30;;;;;;;2.04;100.00;100105.13;5204814;28;20029;-84
2021/01/08 03:30:11;;;;;;;24.55;15.57;;;;;;;2.09;100.00;100116.25;5204668;28;20021;-79
2021/01/08 03:32:41;;;;;;;27.27;15.57;;;;;;;2.13;100.00;100109.34;5205135;28;20041;-79
2021/01/08 03:35:11;;;;;;;23.08;14.00;;;;;;;2.22;100.00;100109.25;5204948;28;20048;-83
2021/01/08 03:37:42;;;;;;;21.77;14.10;;;;;;;2.13;100.00;100107.63;5204704;28;20025;-83
2021/01/08 03:40:13;;;;;;;20.70;13.65;;;;;;;2.13;100.00;100106.78;5204498;28;20021;-79
2021/01/08 03:42:43;;;;;;;20.80;13.30;;;;;;;2.06;100.00;100112.84;5190523;28;20463;-79
2021/01/08 03:45:13;;;;;;;22.38;13.65;;;;;;;2.07;100.00;100111.97;5192421;28;20124;-81
2021/01/08 03:47:44;;;;;;;19.85;13.18;;;;;;;2.10;100.00;100107.66;5203232;28;20036;-84
2021/01/08 03:50:14;;;;;;;22.95;15.00;;;;;;;2.10;100.00;100106.78;5203140;28;20530;-80
2021/01/08 03:52:44;;;;;;;21.25;13.65;;;;;;;2.10;100.00;100111.94;5203445;28;20033;-81
2021/01/08 03:55:15;;;;;;;20.50;13.63;;;;;;;2.21;100.00;100100.69;5204037;28;20056;-80
2021/01/08 03:57:45;;;;;;;21.10;13.38;;;;;;;2.27;100.00;100100.59;5204351;28;20025;-77
2021/01/08 04:00:15;;;;;;;21.52;14.23;;;;;;;2.30;100.00;100104.88;5200924;28;20018;-77
2021/01/08 04:02:46;;;;;;;22.20;13.60;;;;;;;2.34;100.00;100111.72;5183769;28;20037;-81
2021/01/08 04:05:16;;;;;;;21.67;13.45;;;;;;;2.33;100.00;100102.28;5183967;28;20030;-79
2021/01/08 04:07:46;;;;;;;21.38;14.32;;;;;;;2.31;100.00;100104.84;5183353;28;20438;-79
2021/01/08 04:10:17;;;;;;;22.73;14.50;;;;;;;2.52;100.00;100111.53;5189346;28;20017;-81
2021/01/08 04:12:47;;;;;;;23.83;14.30;;;;;;;2.62;100.00;100107.94;5204014;28;20025;-79
2021/01/08 04:15:17;;;;;;;21.70;13.70;;;;;;;2.35;100.00;100116.84;5187600;28;20037;-80
2021/01/08 04:17:47;;;;;;;23.38;14.55;;;;;;;2.22;100.00;100116.97;5198849;28;20543;-78
2021/01/08 04:20:18;;;;;;;23.48;14.73;;;;;;;2.29;100.00;100118.63;5188759;28;20025;-78
2021/01/08 04:22:48;;;;;;;21.25;14.10;;;;;;;2.23;100.00;100121.28;5206907;28;20021;-78
2021/01/08 04:25:18;;;;;;;24.75;14.45;;;;;;;2.28;100.00;100114.34;5210872;28;20022;-78
2021/01/08 04:27:49;;;;;;;24.70;14.68;;;;;;;2.49;100.00;100121.88;5203752;28;20407;-79
2021/01/08 04:30:19;;;;;;;20.85;13.18;;;;;;;2.47;100.00;100121.03;5191544;28;20029;-79
2021/01/08 04:32:50;;;;;;;20.98;13.50;;;;;;;2.32;100.00;100118.63;5183372;28;20112;-80
2021/01/08 04:35:21;;;;;;;24.92;14.82;;;;;;;2.27;100.00;100115.19;5181579;28;20116;-79
2021/01/08 04:37:51;;;;;;;22.88;14.27;;;;;;;2.48;100.00;100115.00;5183456;28;20034;-78
2021/01/08 04:40:21;;;;;;;22.73;14.40;;;;;;;2.34;100.00;100111.72;5197555;28;20029;-81
2021/01/08 04:42:52;;;;;;;20.52;13.20;;;;;;;2.22;100.00;100116.97;5201329;28;20520;-82
2021/01/08 04:45:22;;;;;;;23.23;14.15;;;;;;;2.30;100.00;100110.03;5188969;28;20063;-81
2021/01/08 04:47:56;;;;;;;22.52;14.13;;;;;;;2.19;100.00;100115.28;5182604;28;20109;-79
2021/01/08 04:50:26;;;;;;;22.63;14.23;;;;;;;2.17;100.00;100117.03;5182842;28;20028;-82
2021/01/08 04:52:57;;;;;;;20.58;13.75;;;;;;;2.37;100.00;100119.41;5182840;28;20384;-80
2021/01/08 04:55:28;;;;;;;23.73;13.93;;;;;;;2.10;100.00;100117.09;5183930;28;20033;-78
2021/01/08 04:58:01;;;;;;;21.88;14.15;;;;;;;2.18;100.00;100120.47;5200588;28;20083;-82
2021/01/08 05:00:33;;;;;;;22.40;14.55;;;;;;;2.04;100.00;100125.75;5201217;28;20032;-81
2021/01/08 05:03:04;;;;;;;21.88;14.30;;;;;;;1.98;100.00;100117.22;5202356;28;20045;-78
2021/01/08 05:05:34;;;;;;;24.17;14.32;;;;;;;1.98;100.00;100119.78;5203183;28;20480;-78
2021/01/08 05:08:04;;;;;;;24.85;15.00;;;;;;;1.91;100.00;100120.69;5203085;28;20472;-79
2021/01/08 05:10:36;;;;;;;24.17;15.55;;;;;;;1.92;100.00;100124.97;5202509;28;20387;-83
2021/01/08 05:13:06;;;;;;;22.67;14.80;;;;;;;1.92;100.00;100127.56;5202970;28;20108;-78
2021/01/08 05:15:38;;;;;;;22.67;14.57;;;;;;;2.00;100.00;100123.22;5203137;28;20531;-77
2021/01/08 05:18:09;;;;;;;22.40;14.45;;;;;;;1.99;100.00;100134.38;5202943;28;20060;-78
2021/01/08 05:20:40;;;;;;;22.08;14.02;;;;;;;2.00;100.00;100130.94;5194579;28;20025;-81
2021/01/08 05:23:11;;;;;;;20.13;13.50;;;;;;;2.15;100.00;100126.50;5195836;28;20023;-78
2021/01/08 05:25:45;;;;;;;18.98;12.70;;;;;;;2.23;100.00;100127.28;5202868;28;20052;-81
2021/01/08 05:28:17;;;;;;;20.03;13.07;;;;;;;2.28;100.00;100134.94;5202513;28;20026;-78
2021/01/08 05:30:47;;;;;;;19.83;13.23;;;;;;;2.14;100.00;100126.53;5202631;28;20648;-81
2021/01/08 05:33:18;;;;;;;21.33;13.10;;;;;;;2.30;100.00;100128.94;5202650;28;20034;-80
2021/01/08 05:35:49;;;;;;;19.67;12.60;;;;;;;2.36;100.00;100130.59;5202217;28;20619;-78
2021/01/08 05:38:21;;;;;;;19.33;12.98;;;;;;;2.32;100.00;100129.75;5182443;28;20029;-81
2021/01/08 05:41:00;;;;;;;20.10;12.63;;;;;;;2.29;100.00;100141.81;5181785;28;20025;-78
2021/01/08 05:43:30;;;;;;;20.73;13.55;;;;;;;2.13;100.00;100140.28;5193858;28;20466;-81
2021/01/08 05:46:16;;;;;;;19.58;12.48;;;;;;;2.11;100.00;100142.84;5202010;28;20029;-78
2021/01/08 05:48:52;;;;;;;19.20;11.98;;;;;;;2.25;100.00;100143.59;5202752;28;20025;-82
2021/01/08 05:51:25;;;;;;;19.13;12.75;;;;;;;2.35;100.00;100141.78;5201858;28;20036;-78
2021/01/08 05:54:01;;;;;;;21.50;12.75;;;;;;;2.35;100.00;100137.47;5197207;28;20076;-77
2021/01/08 05:56:34;;;;;;;19.90;12.68;;;;;;;2.20;100.00;100141.91;5202527;28;20156;-78
2021/01/08 05:59:08;;;;;;;17.70;12.50;;;;;;;2.12;100.00;100141.13;5201808;28;20030;-82
2021/01/08 06:01:39;;;;;;;19.17;12.40;;;;;;;2.29;100.00;100145.25;5181577;28;20065;-82
2021/01/08 06:04:10;;;;;;;19.20;11.77;;;;;;;2.16;100.00;100143.66;5181675;28;20026;-77
2021/01/08 06:06:44;;;;;;;19.98;12.73;;;;;;;2.13;100.00;100148.84;5183382;28;20717;-79
2021/01/08 06:09:15;;;;;;;19.13;12.35;;;;;;;2.05;100.00;100150.66;5208595;28;20106;-78
2021/01/08 06:11:46;;;;;;;17.27;11.63;;;;;;;2.08;100.00;100152.31;5205840;28;20112;-80
2021/01/08 06:14:17;;;;;;;17.70;11.23;;;;;;;2.17;100.00;100154.84;5206243;28;20125;-80
2021/01/08 06:16:48;;;;;;;19.63;12.38;;;;;;;2.25;100.00;100147.88;5192365;28;20080;-82
2021/01/08 06:19:19;;;;;;;17.50;11.25;;;;;;;2.20;100.00;100153.06;5185637;28;20026;-79
2021/01/08 06:21:50;;;;;;;15.35;10.38;;;;;;;2.20;100.00;100152.22;5185899;28;20034;-83
2021/01/08 06:24:25;;;;;;;16.90;10.95;;;;;;;2.28;100.00;100153.00;5185578;28;20113;-80
2021/01/08 06:26:55;;;;;;;17.98;11.15;;;;;;;2.19;100.00;100164.25;5185651;28;20030;-82
2021/01/08 06:29:32;;;;;;;16.25;10.38;;;;;;;2.11;100.00;100157.44;5185558;28;20022;-78
2021/01/08 06:32:16;;;;;;;15.85;10.45;;;;;;;2.14;100.00;100160.03;5193379;28;20025;-78
2021/01/08 06:34:46;;;;;;;15.25;10.15;;;;;;;2.18;100.00;100161.69;5184874;28;20053;-77
2021/01/08 06:37:23;;;;;;;18.23;10.85;;;;;;;2.28;100.00;100165.88;5185100;28;20457;-81
2021/01/08 06:39:56;;;;;;;16.17;10.27;;;;;;;2.28;100.00;100165.88;5196380;28;20033;-79
2021/01/08 06:42:28;;;;;;;17.13;11.63;;;;;;;2.13;100.00;100164.31;5203623;28;20029;-79
2021/01/08 06:44:59;;;;;;;18.23;11.35;;;;;;;2.25;100.00;100166.78;5202885;28;20025;-77
2021/01/08 06:47:31;;;;;;;17.75;11.95;;;;;;;2.15;100.00;100172.03;5204434;28;20031;-79
2021/01/08 06:50:02;;;;;;;15.23;10.30;;;;;;;2.10;100.00;100178.94;5204915;28;20056;-80
2021/01/08 06:52:42;;;;;;;15.48;10.32;;;;;;;2.17;100.00;100176.28;5204180;28;20133;-78
2021/01/08 06:55:18;;;;;;;16.50;10.80;;;;;;;1.92;100.00;100179.06;5207147;28;20536;-80
2021/01/08 06:58:00;;;;;;;15.85;10.80;;;;;;;2.02;100.00;100185.88;5206600;28;20108;-78
2021/01/08 07:00:31;;;;;;;15.27;10.23;;;;;;;2.02;100.00;100185.88;5203135;28;20055;-78
2021/01/08 07:03:05;;;;;;;16.33;10.35;;;;;;;2.19;100.00;100191.75;5203565;28;20021;-78
2021/01/08 07:05:36;;;;;;;15.77;10.00;;;;;;;2.11;100.00;100190.94;5203859;28;20181;-78
2021/01/08 07:08:07;;;;;;;17.10;10.07;;;;;;;2.15;100.00;100187.50;5203424;28;20138;-79
2021/01/08 07:10:37;;;;;;;16.60;10.13;;;;;;;2.04;100.00;100195.31;5203617;28;20091;-80
2021/01/08 07:13:07;;;;;;;14.60;9.75;;;;;;;2.06;100.00;100197.88;5203316;28;20033;-81
2021/01/08 07:15:39;;;;;;;15.68;10.10;;;;;;;1.97;100.00;100197.94;5203704;28;20036;-80
2021/01/08 07:18:12;;;;;;;15.60;10.05;;;;;;;2.12;100.00;100203.84;5203042;28;20025;-80
2021/01/08 07:20:52;;;;;;;17.98;10.13;;;;;;;1.92;100.00;100203.13;5203493;28;20021;-78
2021/01/08 07:23:27;;;;;;;16.35;10.32;;;;;;;2.02;100.00;100216.81;5203094;28;20017;-81
2021/01/08 07:25:57;;;;;;;15.43;10.48;;;;;;;1.90;100.00;100211.72;5204140;28;20486;-78
2021/01/08 07:28:28;;;;;;;15.27;9.93;;;;;;;2.16;100.00;100225.28;5203458;28;20112;-78
2021/01/08 07:31:09;;;;;;;17.38;10.35;;;;;;;2.01;100.00;100218.50;5202167;28;20026;-80
2021/01/08 07:33:46;;;;;;;17.02;10.73;;;;;;;2.19;100.00;100220.09;5201828;28;20108;-80
2021/01/08 07:36:22;;;;;;;14.95;10.18;;;;;;;1.97;100.00;100231.44;5202421;28;20030;-79
2021/01/08 07:38:53;;;;;;;15.70;10.70;;;;;;;1.88;100.00;100237.50;5195255;28;20356;-78
2021/01/08 07:41:38;;;;;;;21.13;12.77;;;;;;;1.94;100.00;100245.19;5202729;28;20485;-80
2021/01/08 07:44:32;;;;;;;16.75;10.20;;;;;;;2.03;100.00;100245.13;5195706;28;20036;-79
2021/01/08 07:47:22;;;;;;;17.52;10.95;;;;;;;2.16;100.00;100245.91;5177892;28;20014;-78
2021/01/08 07:50:08;;;;;;;20.70;11.38;;;;;;;1.95;100.00;100252.06;5187608;28;20025;-81
2021/01/08 07:52:47;;;;;;;20.27;10.80;;;;;;;2.08;100.00;100242.50;5202827;28;20029;-83
2021/01/08 07:55:39;;;;;;;21.38;12.18;;;;;;;1.89;100.00;100248.66;5201927;28;20488;-79
2021/01/08 07:58:10;;;;;;;17.65;11.05;;;;;;;1.95;100.00;100254.63;5201936;28;20031;-78
2021/01/08 08:00:42;;;;;;;17.90;11.30;;;;;;;1.82;100.00;100259.88;5182434;28;584697;-78
2021/01/08 08:03:14;;;;;;;18.17;11.52;;;;;;;1.73;100.00;100257.34;5202963;28;20032;-81
2021/01/08 08:05:44;;;;;;;18.00;10.95;;;;;;;2.10;100.00;100258.81;5203518;28;20032;-78
2021/01/08 08:08:16;;;;;;;16.38;9.98;;;;;;;2.13;100.00;100262.25;5203388;28;20046;-79
2021/01/08 08:10:46;;;;;;;17.55;10.48;;;;;;;2.09;100.00;100275.16;5203043;28;20034;-80
2021/01/08 08:13:25;;;;;;;16.83;10.27;;;;;;;2.17;100.00;100279.38;5203539;28;20107;-79
2021/01/08 08:15:56;;;;;;;16.13;10.55;;;;;;;2.09;100.00;100278.59;5203572;28;20041;-78
2021/01/08 08:18:26;;;;;;;17.55;10.82;;;;;;;2.16;100.00;100282.00;5203145;28;20600;-81
2021/01/08 08:21:07;;;;;;;17.42;10.40;;;;;;;2.21;100.00;100285.38;5203645;28;20033;-80
2021/01/08 08:23:37;;;;;;;16.33;10.45;;;;;;;2.14;100.00;100287.13;5203049;28;20100;-81
2021/01/08 08:26:07;;;;;;;16.98;9.93;;;;;;;2.12;100.00;100288.00;5203829;28;20449;-80
2021/01/08 08:28:38;;;;;;;19.35;10.55;;;;;;;2.14;100.00;100289.72;5203317;28;20608;-80
2021/01/08 08:31:08;;;;;;;17.17;9.82;;;;;;;2.04;100.00;100292.38;5202818;28;20033;-78
2021/01/08 08:33:44;;;;;;;16.77;10.45;;;;;;;1.97;100.00;100299.28;5203358;28;20075;-78
2021/01/08 08:36:20;;;;;;;18.15;10.55;;;;;;;1.96;100.00;100302.72;5203324;28;20021;-79
2021/01/08 08:39:13;;;;;;;16.38;10.20;;;;;;;2.36;100.00;100305.91;5200641;28;20063;-79
2021/01/08 08:41:45;;;;;;;18.23;11.00;;;;;;;1.99;100.00;100304.44;5195124;28;20095;-79
2021/01/08 08:44:18;;;;;;;17.70;10.40;;;;;;;2.08;100.00;100312.09;5181958;28;20030;-82
2021/01/08 08:46:56;;;;;;;19.15;10.18;;;;;;;2.08;100.00;100310.38;5182340;28;20061;-81
2021/01/08 08:49:37;;;;;;;19.05;11.00;;;;;;;2.21;100.00;100304.28;5182213;28;20033;-81
2021/01/08 08:52:07;;;;;;;17.40;10.45;;;;;;;2.24;100.00;100311.13;5201930;28;20384;-79
2021/01/08 08:54:38;;;;;;;16.65;10.02;;;;;;;2.10;100.00;100310.34;5201265;28;20048;-79
2021/01/08 08:57:09;;;;;;;19.02;10.88;;;;;;;2.31;100.00;100308.50;5200832;28;20567;-80
2021/01/08 08:59:41;;;;;;;19.75;10.85;;;;;;;2.43;100.00;100323.03;5201884;28;20033;-79
2021/01/08 09:02:14;;;;;;;16.98;10.23;;;;;;;2.50;100.00;100317.81;5202433;28;20088;-80
2021/01/08 09:04:57;;;;;;;17.85;10.77;;;;;;;2.44;100.00;100329.88;5195887;28;20032;-79
2021/01/08 09:07:37;;;;;;;18.42;10.57;;;;;;;2.47;100.00;100324.75;5202778;28;20499;-81
2021/01/08 09:10:13;;;;;;;16.95;10.25;;;;;;;2.24;100.00;100331.75;5202495;28;20520;-82
2021/01/08 09:12:49;;;;;;;18.90;10.85;;;;;;;2.46;100.00;100330.72;5202382;28;20457;-82
2021/01/08 09:15:27;;;;;;;15.15;9.80;;;;;;;2.56;100.00;100325.53;5202411;28;20125;-80
2021/01/08 09:18:28;;;;;;;22.13;8.73;;;;;;;2.66;100.00;100332.31;5202083;28;20029;-81
2021/01/08 09:21:10;;;;;;;14.60;9.18;;;;;;;2.61;100.00;100328.03;5202138;28;20490;-78
2021/01/08 09:23:44;;;;;;;17.17;11.82;;;;;;;2.72;100.00;100332.25;5201905;28;20067;-83
2021/01/08 09:26:18;;;;;;;14.38;10.05;;;;;;;2.63;100.00;100336.63;5201790;28;20540;-81
2021/01/08 09:28:50;;;;;;;16.90;9.38;;;;;;;2.68;100.00;100330.56;5202397;28;20499;-80
2021/01/08 09:31:37;;;;;;;15.02;9.20;;;;;;;2.62;100.00;100343.53;5202187;28;20036;-78
2021/01/08 09:34:08;;;;;;;12.65;7.60;;;;;;;2.61;100.00;100343.50;5202400;28;20029;-80
2021/01/08 09:36:40;;;;;;;10.63;7.35;;;;;;;2.65;100.00;100340.91;5202519;28;20021;-80
2021/01/08 09:39:10;;;;;;;16.42;9.90;;;;;;;2.74;100.00;100346.00;5202145;28;20108;-80
2021/01/08 09:41:42;;;;;;;15.13;9.35;;;;;;;2.67;100.00;100343.50;5202163;28;20535;-78
2021/01/08 09:44:14;;;;;;;12.60;8.20;;;;;;;2.62;100.00;100352.97;5202502;28;20513;-79
2021/01/08 09:46:56;;;;;;;11.52;7.70;;;;;;;2.78;100.00;100345.13;5202218;28;20025;-80
2021/01/08 09:49:41;;;;;;;9.85;6.63;;;;;;;2.88;100.00;100345.88;5202395;28;20025;-80
2021/01/08 09:52:12;;;;;;;15.45;7.90;;;;;;;2.75;100.00;100344.28;5206862;28;20152;-77
2021/01/08 09:54:50;;;;;;;11.95;8.20;;;;;;;2.88;100.00;100343.31;5201728;28;20112;-81
2021/01/08 09:57:25;;;;;;;11.07;7.95;;;;;;;2.84;100.00;100347.63;5202228;28;20026;-81
2021/01/08 09:59:57;;;;;;;12.05;8.48;;;;;;;2.81;100.00;100346.78;5201352;28;20512;-79
2021/01/08 10:02:41;;;;;;;12.52;9.20;;;;;;;2.93;100.00;100346.69;5202252;28;20026;-79
2021/01/08 10:05:20;;;;;;;12.00;7.97;;;;;;;2.90;100.00;100352.75;5202015;28;20392;-81
2021/01/08 10:07:51;;;;;;;12.82;7.45;;;;;;;3.01;100.00;100360.41;5192476;28;20097;-78
2021/01/08 10:10:27;;;;;;;13.30;9.00;;;;;;;3.06;100.00;100358.63;5196088;28;20440;-80
2021/01/08 10:12:58;;;;;;;30.77;17.85;;;;;;;2.99;100.00;100359.56;5201976;28;20029;-79
2021/01/08 10:15:52;;;;;;;24.65;13.38;;;;;;;2.96;100.00;100357.84;5200632;28;20618;-80
2021/01/08 10:18:27;;;;;;;12.43;7.70;;;;;;;3.10;100.00;100352.56;5180002;28;20455;-78
2021/01/08 10:21:07;;;;;;;13.88;8.55;;;;;;;3.19;100.00;100360.25;5199468;28;20075;-80
2021/01/08 10:23:45;;;;;;;12.65;8.05;;;;;;;3.05;100.00;100356.91;5201624;28;20117;-79
2021/01/08 10:26:17;;;;;;;10.23;6.18;;;;;;;3.07;100.00;100358.63;5201808;28;20025;-79
2021/01/08 10:28:51;;;;;;;8.52;5.65;;;;;;;2.89;100.00;100365.66;5199679;28;20563;-80
2021/01/08 10:31:23;;;;;;;9.30;6.03;;;;;;;2.88;100.00;100363.94;5202074;28;20017;-81
2021/01/08 10:33:53;;;;;;;18.38;9.90;;;;;;;2.84;100.00;100362.28;5211366;28;20021;-77
2021/01/08 10:36:23;;;;;;;18.67;11.48;;;;;;;2.75;100.00;100359.75;5211706;28;20116;-78
2021/01/08 10:38:53;;;;;;;14.18;7.53;;;;;;;2.70;100.00;100371.84;5201453;28;20108;-81
2021/01/08 10:41:24;;;;;;;10.60;6.40;;;;;;;2.73;100.00;100357.19;5202161;28;20056;-82
2021/01/08 10:43:54;;;;;;;10.20;6.22;;;;;;;2.79;100.00;100374.31;5201389;28;20025;-82
2021/01/08 10:46:24;;;;;;;8.75;5.85;;;;;;;2.55;100.00;100366.78;5202241;28;20495;-81
2021/01/08 10:48:55;;;;;;;10.38;6.10;;;;;;;2.62;100.00;100371.88;5201698;28;20033;-81
2021/01/08 10:51:29;;;;;;;10.30;5.65;;;;;;;2.56;100.00;100378.81;5201201;28;20056;-78
2021/01/08 10:53:59;;;;;;;11.40;7.03;;;;;;;2.55;100.00;100374.53;5214981;28;20124;-78
2021/01/08 10:56:30;;;;;;;7.22;4.88;;;;;;;2.56;100.00;100373.66;5209627;28;20105;-78
2021/01/08 10:59:00;;;;;;;7.28;4.93;;;;;;;2.63;100.00;100376.19;5203177;28;20029;-79
2021/01/08 11:01:39;;;;;;;7.45;5.15;;;;;;;2.64;100.00;100374.44;5204793;28;20036;-80
2021/01/08 11:04:10;;;;;;;9.00;5.32;;;;;;;2.70;100.00;100380.41;5204444;28;20490;-78
2021/01/08 11:06:40;;;;;;;7.32;4.65;;;;;;;2.61;100.00;100371.88;5204801;28;20063;-79
2021/01/08 11:09:10;;;;;;;6.38;4.28;;;;;;;2.53;100.00;100376.25;5204861;28;20026;-77
2021/01/08 11:11:41;;;;;;;6.80;4.80;;;;;;;2.70;100.00;100377.00;5204561;28;20475;-77
2021/01/08 11:14:11;;;;;;;7.68;4.97;;;;;;;2.75;100.00;100367.50;5204675;28;20033;-80
2021/01/08 11:16:42;;;;;;;6.72;4.63;;;;;;;2.88;100.00;100375.13;5198950;28;20137;-81
2021/01/08 11:19:12;;;;;;;6.75;4.47;;;;;;;3.13;100.00;100362.84;5204938;28;20021;-77
2021/01/08 11:21:43;;;;;;;6.00;4.15;;;;;;;3.15;100.00;100371.44;5204631;28;20053;-78
2021/01/08 11:24:13;;;;;;;6.88;4.68;;;;;;;3.19;100.00;100367.97;5204658;28;20025;-81
2021/01/08 11:26:43;;;;;;;7.13;4.82;;;;;;;3.09;100.00;100368.91;5204714;28;20031;-79
2021/01/08 11:29:14;;;;;;;7.13;4.85;;;;;;;3.26;100.00;100373.06;5204703;28;20498;-81
2021/01/08 11:31:44;;;;;;;7.30;4.88;;;;;;;3.30;100.00;100373.88;5204365;28;20056;-77
2021/01/08 11:34:15;;;;;;;14.35;8.68;;;;;;;3.21;100.00;100367.06;5204634;28;20029;-78
2021/01/08 11:36:46;;;;;;;9.35;6.35;;;;;;;3.17;100.00;100372.31;5204285;28;20419;-80